createdAt,value
2022-08-09T00:00:17.890Z,76.60
2022-08-09T00:02:01.057Z,76.81
2022-08-09T00:03:18.867Z,76.90
2022-08-09T00:07:52.308Z,76.99
2022-08-09T00:09:19.401Z,77.03
2022-08-09T00:10:27.274Z,76.96
2022-08-09T00:13:03.379Z,77.14
2022-08-09T00:14:36.520Z,77.07
2022-08-09T00:16:08.182Z,77.17
2022-08-09T00:19:09.344Z,77.22
2022-08-09T00:20:21.061Z,77.39
2022-08-09T00:21:36.439Z,77.49
2022-08-09T00:24:05.433Z,77.25
2022-08-09T00:25:15.882Z,77.20
2022-08-09T00:26:38.903Z,77.22
2022-08-09T00:28:34.628Z,77.48
2022-08-09T00:30:31.502Z,77.56
2022-08-09T00:32:05.672Z,77.55
2022-08-09T00:33:57.430Z,77.59
2022-08-09T00:35:06.533Z,77.46
2022-08-09T00:36:29.567Z,77.53
2022-08-09T00:38:08.513Z,77.48
2022-08-09T00:40:17.453Z,77.38
2022-08-09T00:44:32.850Z,77.42
2022-08-09T00:47:05.561Z,77.98
2022-08-09T00:48:27.991Z,77.96
2022-08-09T00:49:52.671Z,78.11
2022-08-09T00:52:02.027Z,78.05
2022-08-09T00:53:29.698Z,78.18
2022-08-09T00:54:42.113Z,78.13
2022-08-09T00:56:57.069Z,78.23
2022-08-09T00:58:33.431Z,78.17
2022-08-09T00:59:52.766Z,78.24
2022-08-09T01:00:28.145Z,78.30
2022-08-09T01:01:50.914Z,78.24
2022-08-09T01:02:58.430Z,78.22
2022-08-09T01:04:49.645Z,78.23
2022-08-09T01:06:03.953Z,78.25
2022-08-09T01:08:06.410Z,78.29
2022-08-09T01:10:04.266Z,78.25
2022-08-09T01:11:15.140Z,78.27
2022-08-09T01:12:21.192Z,78.34
2022-08-09T01:14:07.315Z,78.40
2022-08-09T01:15:23.207Z,78.46
2022-08-09T01:16:40.753Z,78.72
2022-08-09T01:18:36.301Z,78.88
2022-08-09T01:20:32.559Z,78.93
2022-08-09T01:21:53.785Z,79.02
2022-08-09T01:24:10.055Z,79.04
2022-08-09T01:25:19.205Z,79.22
2022-08-09T01:26:37.049Z,79.28
2022-08-09T01:28:21.488Z,79.26
2022-08-09T01:29:55.181Z,79.19
2022-08-09T01:32:38.456Z,79.40
2022-08-09T01:34:17.931Z,79.72
2022-08-09T01:35:44.402Z,79.76
2022-08-09T01:36:53.918Z,80.00
2022-08-09T01:39:23.322Z,79.90
2022-08-09T01:40:34.331Z,79.88
2022-08-09T01:42:11.166Z,79.69
2022-08-09T01:43:57.939Z,79.94
2022-08-09T01:45:05.662Z,80.08
2022-08-09T01:46:09.628Z,80.21
2022-08-09T01:48:06.055Z,80.12
2022-08-09T01:49:38.761Z,80.17
2022-08-09T01:51:01.018Z,80.38
2022-08-09T01:53:00.719Z,80.52
2022-08-09T01:54:38.277Z,80.59
2022-08-09T01:55:44.494Z,80.44
2022-08-09T01:57:40.314Z,80.47
2022-08-09T01:58:54.802Z,80.67
2022-08-09T02:00:41.655Z,80.48
2022-08-09T02:02:06.445Z,80.62
2022-08-09T02:03:19.736Z,80.99
2022-08-09T02:04:56.409Z,81.07
2022-08-09T02:07:04.474Z,81.12
2022-08-09T02:10:05.203Z,81.11
2022-08-09T02:11:58.148Z,81.08
2022-08-09T02:13:15.161Z,80.96
2022-08-09T02:15:06.430Z,81.49
2022-08-09T02:18:53.600Z,81.90
2022-08-09T02:19:59.450Z,81.91
2022-08-09T02:21:27.593Z,82.17
2022-08-09T02:23:32.003Z,82.03
2022-08-09T02:24:57.240Z,82.06
2022-08-09T02:26:05.655Z,82.23
2022-08-09T02:28:37.938Z,82.20
2022-08-09T02:29:45.959Z,82.18
2022-08-09T02:30:57.439Z,82.00
2022-08-09T02:32:38.009Z,82.33
2022-08-09T02:34:25.700Z,82.47
2022-08-09T02:36:53.099Z,82.62
2022-08-09T02:38:36.735Z,82.53
2022-08-09T02:39:55.348Z,82.69
2022-08-09T02:41:16.782Z,82.74
2022-08-09T02:42:59.912Z,82.76
2022-08-09T02:44:29.560Z,82.74
2022-08-09T02:45:34.555Z,82.79
2022-08-09T02:47:16.410Z,82.82
2022-08-09T02:48:56.754Z,83.17
2022-08-09T02:50:18.966Z,83.49
2022-08-09T02:52:01.030Z,83.65
2022-08-09T02:53:09.971Z,83.49
2022-08-09T02:55:03.298Z,83.56
2022-08-09T02:58:32.604Z,83.68
2022-08-09T03:00:21.227Z,83.77
2022-08-09T03:00:31.889Z,83.71
2022-08-09T03:03:06.162Z,83.63
2022-08-09T03:05:11.329Z,83.75
2022-08-09T03:06:57.114Z,84.11
2022-08-09T03:08:13.720Z,84.03
2022-08-09T03:09:17.861Z,84.04
2022-08-09T03:12:04.707Z,83.91
2022-08-09T03:13:15.710Z,83.90
2022-08-09T03:14:51.353Z,84.09
2022-08-09T03:17:05.403Z,84.12
2022-08-09T03:18:36.100Z,84.20
2022-08-09T03:20:35.391Z,84.37
2022-08-09T03:22:56.795Z,84.35
2022-08-09T03:24:52.692Z,84.27
2022-08-09T03:27:13.027Z,84.14
2022-08-09T03:29:23.201Z,84.16
2022-08-09T03:30:57.111Z,84.25
2022-08-09T03:32:25.536Z,84.22
2022-08-09T03:34:35.005Z,84.10
2022-08-09T03:36:22.291Z,84.07
2022-08-09T03:38:41.585Z,84.10
2022-08-09T03:40:46.666Z,83.99
2022-08-09T03:42:11.842Z,83.84
2022-08-09T03:43:31.408Z,83.81
2022-08-09T03:46:29.320Z,83.93
2022-08-09T03:47:46.667Z,83.98
2022-08-09T03:48:57.520Z,84.07
2022-08-09T03:50:59.305Z,83.99
2022-08-09T03:52:58.650Z,84.09
2022-08-09T03:54:17.523Z,84.19
2022-08-09T03:56:10.806Z,84.31
2022-08-09T03:57:26.356Z,84.21
2022-08-09T03:59:17.275Z,84.12
2022-08-09T04:00:22.617Z,84.13
2022-08-09T04:01:30.673Z,84.14
2022-08-09T04:02:40.094Z,84.30
2022-08-09T04:05:46.470Z,84.35
2022-08-09T04:06:55.696Z,84.33
2022-08-09T04:08:03.436Z,84.45
2022-08-09T04:10:29.519Z,84.51
2022-08-09T04:11:38.731Z,84.53
2022-08-09T04:13:11.493Z,84.61
2022-08-09T04:17:12.031Z,85.37
2022-08-09T04:18:25.113Z,85.28
2022-08-09T04:19:51.627Z,85.37
2022-08-09T04:21:45.900Z,85.31
2022-08-09T04:22:58.293Z,85.37
2022-08-09T04:24:13.824Z,85.52
2022-08-09T04:25:58.738Z,86.06
2022-08-09T04:27:03.841Z,86.12
2022-08-09T04:28:34.190Z,85.99
2022-08-09T04:30:48.410Z,85.92
2022-08-09T04:32:04.244Z,86.12
2022-08-09T04:33:52.690Z,86.05
2022-08-09T04:35:50.971Z,86.34
2022-08-09T04:36:59.906Z,86.56
2022-08-09T04:38:26.883Z,86.55
2022-08-09T04:40:11.825Z,86.69
2022-08-09T04:41:49.665Z,86.74
2022-08-09T04:43:05.582Z,86.75
2022-08-09T04:45:04.285Z,86.75
2022-08-09T04:46:59.648Z,86.78
2022-08-09T04:48:33.191Z,86.75
2022-08-09T04:50:52.136Z,86.75
2022-08-09T04:52:00.312Z,86.70
2022-08-09T04:53:19.492Z,86.50
2022-08-09T04:54:57.094Z,86.72
2022-08-09T04:56:32.476Z,86.81
2022-08-09T04:58:09.110Z,86.83
2022-08-09T05:00:18.201Z,86.91
2022-08-09T05:01:29.166Z,86.64
2022-08-09T05:02:38.282Z,86.87
2022-08-09T05:05:52.456Z,86.88
2022-08-09T05:07:29.253Z,86.94
2022-08-09T05:08:39.365Z,87.50
2022-08-09T05:10:42.768Z,87.49
2022-08-09T05:11:49.306Z,87.64
2022-08-09T05:12:57.045Z,87.54
2022-08-09T05:14:46.984Z,87.40
2022-08-09T05:16:20.811Z,87.57
2022-08-09T05:19:56.604Z,87.41
2022-08-09T05:22:00.938Z,87.30
2022-08-09T05:25:02.925Z,87.44
2022-08-09T05:26:26.554Z,87.40
2022-08-09T05:28:29.713Z,87.32
2022-08-09T05:29:41.065Z,87.35
2022-08-09T05:30:53.723Z,87.32
2022-08-09T05:33:04.528Z,87.07
2022-08-09T05:34:35.904Z,87.16
2022-08-09T05:35:57.177Z,87.10
2022-08-09T05:37:55.940Z,87.05
2022-08-09T05:39:10.679Z,87.06
2022-08-09T05:40:36.212Z,86.86
2022-08-09T05:42:28.024Z,86.78
2022-08-09T05:43:37.611Z,86.71
2022-08-09T05:44:56.207Z,86.62
2022-08-09T05:46:51.328Z,86.37
2022-08-09T05:48:04.854Z,86.23
2022-08-09T05:50:50.987Z,86.24
2022-08-09T05:53:56.493Z,85.69
2022-08-09T05:55:20.834Z,85.46
2022-08-09T05:56:31.636Z,85.16
2022-08-09T05:59:04.325Z,84.82
2022-08-09T06:00:17.452Z,84.62
2022-08-09T06:01:22.331Z,84.53
2022-08-09T06:02:54.161Z,84.15
2022-08-09T06:05:05.814Z,84.06
2022-08-09T06:06:55.798Z,84.15
2022-08-09T06:08:19.459Z,83.71
2022-08-09T06:10:58.123Z,83.35
2022-08-09T06:12:44.151Z,83.11
2022-08-09T06:14:15.220Z,82.66
2022-08-09T06:15:57.835Z,82.38
2022-08-09T06:17:09.106Z,81.97
2022-08-09T06:18:31.490Z,81.92
2022-08-09T06:20:10.194Z,81.88
2022-08-09T06:21:16.737Z,81.74
2022-08-09T06:22:35.820Z,81.35
2022-08-09T06:24:49.974Z,81.28
2022-08-09T06:26:02.383Z,80.99
2022-08-09T06:27:15.452Z,80.83
2022-08-09T06:29:27.173Z,80.62
2022-08-09T06:31:01.304Z,80.32
2022-08-09T06:33:41.271Z,80.21
2022-08-09T06:35:23.249Z,79.60
2022-08-09T06:37:15.868Z,79.44
2022-08-09T06:38:57.689Z,79.12
2022-08-09T06:41:56.782Z,78.27
2022-08-09T06:43:27.039Z,78.07
2022-08-09T06:44:40.897Z,78.11
2022-08-09T06:48:06.490Z,77.03
2022-08-09T06:50:19.261Z,76.93
2022-08-09T06:51:33.611Z,76.65
2022-08-09T06:53:20.835Z,75.80
2022-08-09T06:54:31.990Z,75.66
2022-08-09T06:55:37.651Z,74.99
2022-08-09T06:58:02.520Z,74.97
2022-08-09T07:01:02.320Z,74.41
2022-08-09T07:02:45.347Z,74.09
2022-08-09T07:04:04.032Z,72.63
2022-08-09T07:06:08.778Z,72.15
2022-08-09T07:08:06.591Z,72.36
2022-08-09T07:09:53.732Z,71.75
2022-08-09T07:12:38.598Z,71.21
2022-08-09T07:14:57.360Z,71.09
2022-08-09T07:18:03.131Z,70.18
2022-08-09T07:19:44.318Z,70.01
2022-08-09T07:20:57.563Z,69.87
2022-08-09T07:22:11.675Z,69.37
2022-08-09T07:24:18.582Z,68.59
2022-08-09T07:25:52.470Z,68.03
2022-08-09T07:27:11.108Z,67.48
2022-08-09T07:30:12.513Z,66.64
2022-08-09T07:31:21.527Z,66.74
2022-08-09T07:32:40.768Z,66.43
2022-08-09T07:34:48.491Z,66.86
2022-08-09T07:36:06.609Z,67.03
2022-08-09T07:37:22.083Z,66.85
2022-08-09T07:39:41.023Z,66.79
2022-08-09T07:41:17.004Z,66.85
2022-08-09T07:42:38.552Z,66.90
2022-08-09T07:45:02.531Z,66.56
2022-08-09T07:46:44.460Z,66.66
2022-08-09T07:48:28.781Z,66.75
2022-08-09T07:52:06.048Z,66.56
2022-08-09T07:54:08.609Z,66.58
2022-08-09T07:55:28.763Z,66.07
2022-08-09T07:58:21.444Z,66.29
2022-08-09T07:59:59.407Z,65.93
2022-08-09T08:00:36.344Z,65.92
2022-08-09T08:02:25.207Z,64.69
2022-08-09T08:03:42.633Z,64.56
2022-08-09T08:05:29.902Z,64.02
2022-08-09T08:09:03.071Z,63.15
2022-08-09T08:12:29.265Z,63.31
2022-08-09T08:14:43.256Z,63.22
2022-08-09T08:15:50.690Z,63.31
2022-08-09T08:18:01.005Z,63.31
2022-08-09T08:19:39.179Z,62.88
2022-08-09T08:20:53.677Z,62.57
2022-08-09T08:21:58.873Z,62.70
2022-08-09T08:24:11.419Z,63.24
2022-08-09T08:26:06.662Z,62.71
2022-08-09T08:27:58.249Z,62.36
2022-08-09T08:29:55.872Z,62.15
2022-08-09T08:31:14.494Z,61.84
2022-08-09T08:33:11.798Z,61.44
2022-08-09T08:36:00.764Z,61.43
2022-08-09T08:37:41.931Z,61.45
2022-08-09T08:39:11.006Z,60.87
2022-08-09T08:40:59.511Z,60.67
2022-08-09T08:42:24.370Z,60.99
2022-08-09T08:43:41.747Z,60.59
2022-08-09T08:45:53.641Z,59.17
2022-08-09T08:48:05.546Z,59.17
2022-08-09T08:49:48.567Z,58.11
2022-08-09T08:52:00.445Z,58.31
2022-08-09T08:54:10.330Z,57.00
2022-08-09T08:55:30.253Z,56.31
2022-08-09T08:57:23.027Z,57.02
2022-08-09T08:58:52.208Z,56.85
2022-08-09T09:00:27.872Z,56.73
2022-08-09T09:02:05.581Z,56.90
2022-08-09T09:03:43.078Z,56.04
2022-08-09T09:06:06.860Z,56.44
2022-08-09T09:07:13.724Z,56.26
2022-08-09T09:08:41.123Z,56.07
2022-08-09T09:11:25.328Z,54.66
2022-08-09T09:12:41.903Z,54.24
2022-08-09T09:14:03.794Z,53.83
2022-08-09T09:16:09.067Z,53.02
2022-08-09T09:17:23.350Z,52.58
2022-08-09T09:19:37.216Z,51.47
2022-08-09T09:21:31.836Z,51.25
2022-08-09T09:22:56.397Z,51.30
2022-08-09T09:24:40.503Z,51.62
2022-08-09T09:28:12.723Z,51.91
2022-08-09T09:30:47.499Z,53.06
2022-08-09T09:32:57.169Z,51.60
2022-08-09T09:35:16.004Z,51.29
2022-08-09T09:36:53.175Z,51.11
2022-08-09T09:37:59.202Z,50.95
2022-08-09T09:40:03.534Z,50.40
2022-08-09T09:41:15.545Z,50.39
2022-08-09T09:42:38.402Z,50.25
2022-08-09T09:44:54.033Z,50.98
2022-08-09T09:46:57.963Z,50.59
2022-08-09T09:48:05.230Z,50.63
2022-08-09T09:50:16.813Z,49.84
2022-08-09T09:51:44.277Z,49.51
2022-08-09T09:54:10.611Z,49.38
2022-08-09T09:56:37.326Z,46.94
2022-08-09T09:59:24.423Z,46.91
2022-08-09T10:00:19.317Z,46.74
2022-08-09T10:01:47.325Z,47.70
2022-08-09T10:02:52.796Z,46.83
2022-08-09T10:05:12.332Z,45.60
2022-08-09T10:07:03.439Z,45.88
2022-08-09T10:09:01.123Z,46.34
2022-08-09T10:12:14.586Z,45.72
2022-08-09T10:13:51.212Z,46.45
2022-08-09T10:15:17.284Z,46.09
2022-08-09T10:19:19.927Z,45.33
2022-08-09T10:20:45.263Z,43.84
2022-08-09T10:21:54.238Z,44.53
2022-08-09T10:23:48.863Z,45.14
2022-08-09T10:25:20.844Z,44.58
2022-08-09T10:27:17.283Z,44.24
2022-08-09T10:34:33.143Z,45.15
2022-08-09T10:35:39.536Z,43.45
2022-08-09T10:37:28.902Z,43.83
2022-08-09T10:39:06.007Z,42.65
2022-08-09T10:40:50.011Z,42.40
2022-08-09T10:42:32.760Z,41.95
2022-08-09T10:44:04.601Z,41.66
2022-08-09T10:45:17.740Z,44.52
2022-08-09T10:48:36.877Z,43.59
2022-08-09T10:49:59.391Z,43.48
2022-08-09T10:51:20.928Z,41.96
2022-08-09T10:53:28.696Z,43.26
2022-08-09T10:55:01.495Z,44.40
2022-08-09T10:56:06.081Z,43.92
2022-08-09T10:57:59.786Z,43.77
2022-08-09T10:59:20.068Z,44.17
2022-08-09T11:00:21.819Z,42.08
2022-08-09T11:04:37.521Z,41.91
2022-08-09T11:06:42.970Z,43.48
2022-08-09T11:09:15.503Z,41.72
2022-08-09T11:10:40.116Z,43.43
2022-08-09T11:12:01.736Z,43.48
2022-08-09T11:14:34.488Z,43.28
2022-08-09T11:16:10.154Z,42.74
2022-08-09T11:17:42.007Z,41.79
2022-08-09T11:20:27.677Z,42.46
2022-08-09T11:21:31.124Z,40.44
2022-08-09T11:23:23.927Z,40.13
2022-08-09T11:25:10.787Z,39.65
2022-08-09T11:26:35.606Z,40.68
2022-08-09T11:29:02.683Z,40.66
2022-08-09T11:32:24.004Z,39.57
2022-08-09T11:33:30.255Z,39.09
2022-08-09T11:34:37.310Z,38.56
2022-08-09T11:36:42.463Z,36.65
2022-08-09T11:37:59.009Z,37.84
2022-08-09T11:39:17.065Z,37.78
2022-08-09T11:41:09.213Z,37.89
2022-08-09T11:42:36.170Z,38.36
2022-08-09T11:43:43.161Z,38.61
2022-08-09T11:45:20.890Z,38.82
2022-08-09T11:46:43.704Z,38.51
2022-08-09T11:47:51.411Z,38.84
2022-08-09T11:52:49.463Z,36.92
2022-08-09T11:55:18.559Z,39.17
2022-08-09T11:57:00.724Z,39.33
2022-08-09T11:59:39.456Z,40.40
2022-08-09T12:00:27.163Z,40.57
2022-08-09T12:02:37.427Z,39.58
2022-08-09T12:04:45.252Z,39.47
2022-08-09T12:06:42.091Z,39.02
2022-08-09T12:08:04.593Z,37.88
2022-08-09T12:09:25.377Z,37.89
2022-08-09T12:12:02.347Z,36.97
2022-08-09T12:14:18.107Z,37.59
2022-08-09T12:16:44.199Z,36.56
2022-08-09T12:19:18.071Z,36.42
2022-08-09T12:20:32.104Z,37.16
2022-08-09T12:21:48.453Z,36.87
2022-08-09T12:24:15.292Z,35.57
2022-08-09T12:25:49.501Z,38.50
2022-08-09T12:29:32.868Z,36.83
2022-08-09T12:32:56.260Z,36.41
2022-08-09T12:34:07.199Z,37.53
2022-08-09T12:35:22.517Z,37.16
2022-08-09T12:37:50.732Z,35.56
2022-08-09T12:39:10.323Z,36.63
2022-08-09T12:40:18.227Z,36.15
2022-08-09T12:42:02.121Z,36.83
2022-08-09T12:43:21.302Z,36.37
2022-08-09T12:45:43.849Z,36.16
2022-08-09T12:47:50.823Z,35.32
2022-08-09T12:49:17.745Z,35.08
2022-08-09T12:50:34.329Z,35.71
2022-08-09T12:53:19.450Z,36.19
2022-08-09T12:56:10.917Z,35.93
2022-08-09T12:57:46.274Z,36.46
2022-08-09T13:00:18.501Z,35.39
2022-08-09T13:01:28.331Z,35.12
2022-08-09T13:02:48.333Z,36.41
2022-08-09T13:05:35.658Z,33.83
2022-08-09T13:07:28.745Z,35.15
2022-08-09T13:09:01.947Z,34.41
2022-08-09T13:10:57.820Z,35.24
2022-08-09T13:12:28.042Z,34.94
2022-08-09T13:14:54.036Z,34.12
2022-08-09T13:16:36.497Z,34.12
2022-08-09T13:18:09.951Z,34.48
2022-08-09T13:20:23.452Z,33.75
2022-08-09T13:26:11.116Z,36.44
2022-08-09T13:27:48.723Z,35.43
2022-08-09T13:29:18.663Z,34.91
2022-08-09T13:33:59.652Z,33.25
2022-08-09T13:35:17.316Z,33.85
2022-08-09T13:37:58.379Z,34.10
2022-08-09T13:43:35.651Z,33.70
2022-08-09T13:44:48.675Z,34.39
2022-08-09T13:47:31.126Z,34.33
2022-08-09T13:49:57.751Z,33.48
2022-08-09T13:51:23.758Z,33.65
2022-08-09T13:52:53.208Z,33.44
2022-08-09T13:54:41.649Z,33.17
2022-08-09T13:56:11.076Z,33.15
2022-08-09T13:57:45.537Z,33.72
2022-08-09T13:59:47.809Z,33.57
2022-08-09T14:00:18.316Z,32.45
2022-08-09T14:02:07.815Z,33.85
2022-08-09T14:05:05.543Z,34.92
2022-08-09T14:08:06.835Z,33.81
2022-08-09T14:09:15.903Z,34.70
2022-08-09T14:10:49.299Z,34.10
2022-08-09T14:12:46.639Z,33.81
2022-08-09T14:14:59.529Z,34.17
2022-08-09T14:17:22.597Z,32.86
2022-08-09T14:20:11.561Z,33.61
2022-08-09T14:21:22.257Z,34.70
2022-08-09T14:22:28.880Z,35.17
2022-08-09T14:24:59.817Z,35.25
2022-08-09T14:26:29.252Z,35.45
2022-08-09T14:28:02.321Z,35.62
2022-08-09T14:30:47.393Z,35.57
2022-08-09T14:31:58.938Z,35.96
2022-08-09T14:33:38.428Z,35.11
2022-08-09T14:35:58.573Z,35.14
2022-08-09T14:37:41.332Z,35.00
2022-08-09T14:39:14.277Z,34.98
2022-08-09T14:42:37.803Z,35.27
2022-08-09T14:43:59.098Z,35.33
2022-08-09T14:47:57.525Z,34.66
2022-08-09T14:50:07.354Z,35.37
2022-08-09T14:51:17.957Z,34.82
2022-08-09T14:52:41.360Z,35.39
2022-08-09T14:54:39.791Z,35.31
2022-08-09T14:55:50.437Z,35.51
2022-08-09T14:57:04.960Z,35.95
2022-08-09T14:59:03.507Z,36.93
2022-08-09T15:00:18.188Z,35.68
2022-08-09T15:01:38.393Z,36.32
2022-08-09T15:02:47.278Z,35.75
2022-08-09T15:04:30.277Z,36.01
2022-08-09T15:05:39.096Z,36.27
2022-08-09T15:07:00.207Z,35.64
2022-08-09T15:09:02.132Z,35.67
2022-08-09T15:11:07.545Z,35.52
2022-08-09T15:12:17.136Z,35.56
2022-08-09T15:14:19.371Z,35.18
2022-08-09T15:15:39.330Z,35.25
2022-08-09T15:16:49.222Z,35.85
2022-08-09T15:18:39.548Z,36.96
2022-08-09T15:20:08.519Z,35.85
2022-08-09T15:24:12.856Z,35.28
2022-08-09T15:26:36.636Z,34.96
2022-08-09T15:28:27.196Z,35.11
2022-08-09T15:31:17.491Z,35.22
2022-08-09T15:34:33.580Z,35.25
2022-08-09T15:36:11.525Z,34.04
2022-08-09T15:38:11.584Z,34.40
2022-08-09T15:40:01.043Z,34.63
2022-08-09T15:41:31.500Z,34.56
2022-08-09T15:42:44.885Z,34.77
2022-08-09T15:44:29.043Z,34.92
2022-08-09T15:46:07.407Z,35.10
2022-08-09T15:48:16.126Z,34.83
2022-08-09T15:51:00.870Z,34.12
2022-08-09T15:53:18.894Z,35.06
2022-08-09T15:56:30.858Z,34.67
2022-08-09T15:58:46.486Z,34.45
2022-08-09T15:59:57.599Z,34.50
2022-08-09T16:00:25.899Z,34.88
2022-08-09T16:01:35.791Z,34.60
2022-08-09T16:02:53.799Z,34.94
2022-08-09T16:06:03.274Z,35.12
2022-08-09T16:07:45.736Z,35.72
2022-08-09T16:09:11.244Z,35.66
2022-08-09T16:12:16.825Z,34.98
2022-08-09T16:14:12.252Z,35.31
2022-08-09T16:16:19.214Z,34.85
2022-08-09T16:18:15.914Z,34.52
2022-08-09T16:19:27.874Z,34.58
2022-08-09T16:21:26.041Z,34.62
2022-08-09T16:23:20.028Z,35.16
2022-08-09T16:24:40.006Z,35.08
2022-08-09T16:26:00.991Z,35.01
2022-08-09T16:28:12.280Z,34.46
2022-08-09T16:29:50.650Z,34.40
2022-08-09T16:32:33.609Z,34.72
2022-08-09T16:34:29.334Z,35.43
2022-08-09T16:36:41.206Z,35.73
2022-08-09T16:38:01.859Z,35.04
2022-08-09T16:40:10.120Z,35.01
2022-08-09T16:42:09.014Z,35.18
2022-08-09T16:43:26.837Z,35.29
2022-08-09T16:45:17.958Z,35.46
2022-08-09T16:46:34.458Z,35.21
2022-08-09T16:51:14.683Z,35.08
2022-08-09T16:52:56.406Z,34.99
2022-08-09T16:54:41.416Z,35.24
2022-08-09T16:56:10.209Z,35.01
2022-08-09T16:58:17.117Z,34.67
2022-08-09T16:59:44.138Z,34.87
2022-08-09T17:00:17.864Z,34.87
2022-08-09T17:01:33.936Z,34.95
2022-08-09T17:02:47.661Z,35.21
2022-08-09T17:04:41.703Z,35.30
2022-08-09T17:08:40.509Z,35.56
2022-08-09T17:10:51.983Z,35.19
2022-08-09T17:12:47.650Z,35.89
2022-08-09T17:14:07.065Z,35.67
2022-08-09T17:16:06.043Z,35.45
2022-08-09T17:18:35.733Z,36.19
2022-08-09T17:20:40.433Z,36.34
2022-08-09T17:22:01.227Z,36.68
2022-08-09T17:25:15.936Z,36.97
2022-08-09T17:26:47.808Z,36.81
2022-08-09T17:28:07.154Z,37.13
2022-08-09T17:29:51.242Z,37.83
2022-08-09T17:31:00.939Z,39.45
2022-08-09T17:32:34.760Z,39.78
2022-08-09T17:35:17.559Z,40.38
2022-08-09T17:36:28.104Z,40.84
2022-08-09T17:38:32.182Z,41.03
2022-08-09T17:40:57.475Z,40.76
2022-08-09T17:43:10.950Z,40.91
2022-08-09T17:46:10.631Z,40.97
2022-08-09T17:48:51.594Z,41.88
2022-08-09T17:50:36.370Z,42.21
2022-08-09T17:52:27.897Z,42.27
2022-08-09T17:54:35.449Z,42.68
2022-08-09T17:56:02.004Z,42.34
2022-08-09T17:58:09.472Z,42.57
2022-08-09T18:00:17.918Z,43.02
2022-08-09T18:02:21.670Z,42.93
2022-08-09T18:03:47.199Z,43.24
2022-08-09T18:05:44.513Z,43.37
2022-08-09T18:07:30.307Z,43.78
2022-08-09T18:08:57.006Z,44.33
2022-08-09T18:11:07.365Z,44.52
2022-08-09T18:14:10.771Z,44.67
2022-08-09T18:16:13.749Z,45.12
2022-08-09T18:21:23.337Z,45.79
2022-08-09T18:22:51.019Z,46.89
2022-08-09T18:24:58.889Z,47.41
2022-08-09T18:27:07.074Z,48.02
2022-08-09T18:32:03.043Z,48.83
2022-08-09T18:33:19.282Z,49.28
2022-08-09T18:35:10.301Z,49.50
2022-08-09T18:37:10.432Z,49.99
2022-08-09T18:39:00.912Z,50.10
2022-08-09T18:40:58.933Z,50.36
2022-08-09T18:42:17.531Z,50.32
2022-08-09T18:43:35.177Z,50.46
2022-08-09T18:47:08.422Z,50.75
2022-08-09T18:48:38.214Z,51.25
2022-08-09T18:50:03.019Z,51.14
2022-08-09T18:52:03.293Z,51.43
2022-08-09T18:54:00.338Z,51.56
2022-08-09T18:56:05.435Z,51.87
2022-08-09T18:57:53.079Z,52.23
2022-08-09T18:59:19.787Z,52.48
2022-08-09T19:00:26.050Z,52.68
2022-08-09T19:01:43.646Z,52.84
2022-08-09T19:02:54.042Z,53.05
2022-08-09T19:06:02.028Z,53.13
2022-08-09T19:07:14.439Z,53.30
2022-08-09T19:08:55.266Z,53.40
2022-08-09T19:11:44.055Z,53.78
2022-08-09T19:12:59.941Z,53.91
2022-08-09T19:15:07.016Z,54.12
2022-08-09T19:16:56.060Z,54.12
2022-08-09T19:18:05.286Z,54.27
2022-08-09T19:19:39.025Z,54.24
2022-08-09T19:22:10.772Z,54.47
2022-08-09T19:24:31.980Z,54.60
2022-08-09T19:26:58.481Z,54.73
2022-08-09T19:28:48.962Z,54.78
2022-08-09T19:30:34.312Z,54.91
2022-08-09T19:31:51.822Z,55.06
2022-08-09T19:33:34.314Z,55.17
2022-08-09T19:34:49.613Z,55.15
2022-08-09T19:36:07.158Z,55.29
2022-08-09T19:38:21.893Z,55.30
2022-08-09T19:40:07.326Z,55.29
2022-08-09T19:41:42.378Z,55.31
2022-08-09T19:44:07.964Z,55.59
2022-08-09T19:45:16.337Z,55.52
2022-08-09T19:46:58.684Z,55.89
2022-08-09T19:50:07.639Z,55.92
2022-08-09T19:52:01.694Z,55.85
2022-08-09T19:53:10.185Z,55.81
2022-08-09T19:55:11.010Z,55.90
2022-08-09T19:57:19.172Z,56.14
2022-08-09T19:58:35.885Z,56.27
2022-08-09T20:00:19.149Z,56.51
2022-08-09T20:01:26.698Z,56.44
2022-08-09T20:05:51.805Z,56.46
2022-08-09T20:08:06.336Z,56.64
2022-08-09T20:09:51.554Z,56.68
2022-08-09T20:11:27.198Z,56.86
2022-08-09T20:14:01.576Z,57.08
2022-08-09T20:16:37.337Z,57.06
2022-08-09T20:18:00.591Z,57.42
2022-08-09T20:20:43.312Z,57.84
2022-08-09T20:22:02.766Z,57.81
2022-08-09T20:23:39.195Z,57.82
2022-08-09T20:25:55.246Z,57.80
2022-08-09T20:27:08.182Z,57.90
2022-08-09T20:28:38.641Z,57.93
2022-08-09T20:30:53.759Z,58.17
2022-08-09T20:32:39.116Z,58.17
2022-08-09T20:33:52.388Z,58.42
2022-08-09T20:35:37.468Z,58.28
2022-08-09T20:36:47.685Z,58.29
2022-08-09T20:38:55.741Z,58.46
2022-08-09T20:41:54.723Z,58.68
2022-08-09T20:43:25.460Z,58.76
2022-08-09T20:45:56.885Z,59.03
2022-08-09T20:48:41.922Z,59.38
2022-08-09T20:49:50.748Z,59.64
2022-08-09T20:51:29.670Z,59.56
2022-08-09T20:53:43.999Z,59.73
2022-08-09T20:54:58.508Z,59.88
2022-08-09T20:56:41.183Z,60.16
2022-08-09T21:00:37.610Z,60.16
2022-08-09T21:02:40.368Z,60.11
2022-08-09T21:06:01.220Z,60.24
2022-08-09T21:08:36.781Z,60.40
2022-08-09T21:10:01.586Z,60.49
2022-08-09T21:14:46.129Z,60.28
2022-08-09T21:16:05.811Z,60.35
2022-08-09T21:18:31.612Z,60.26
2022-08-09T21:22:46.963Z,60.62
2022-08-09T21:24:08.021Z,60.60
2022-08-09T21:25:44.512Z,60.78
2022-08-09T21:28:11.843Z,60.78
2022-08-09T21:30:05.244Z,60.82
2022-08-09T21:31:48.051Z,60.95
2022-08-09T21:33:58.220Z,61.28
2022-08-09T21:35:15.025Z,61.29
2022-08-09T21:36:39.746Z,61.38
2022-08-09T21:39:12.493Z,61.70
2022-08-09T21:40:43.804Z,61.71
2022-08-09T21:42:11.781Z,61.79
2022-08-09T21:44:43.585Z,61.76
2022-08-09T21:45:50.390Z,61.77
2022-08-09T21:46:57.417Z,61.80
2022-08-09T21:48:49.273Z,61.92
2022-08-09T21:49:54.130Z,61.93
2022-08-09T21:51:36.317Z,61.88
2022-08-09T21:53:46.789Z,61.99
2022-08-09T21:55:09.189Z,61.95
2022-08-09T21:56:54.881Z,62.05
2022-08-09T21:59:42.715Z,62.00
2022-08-09T22:00:18.390Z,62.26
2022-08-09T22:02:07.066Z,62.35
2022-08-09T22:03:59.379Z,62.49
2022-08-09T22:06:27.635Z,62.57
2022-08-09T22:07:58.293Z,62.79
2022-08-09T22:09:16.684Z,62.86
2022-08-09T22:12:18.672Z,63.13
2022-08-09T22:13:43.414Z,63.10
2022-08-09T22:14:57.517Z,63.07
2022-08-09T22:16:57.094Z,63.30
2022-08-09T22:18:04.531Z,63.33
2022-08-09T22:20:05.794Z,63.42
2022-08-09T22:22:39.868Z,63.49
2022-08-09T22:24:07.696Z,63.56
2022-08-09T22:26:56.936Z,63.79
2022-08-09T22:28:43.579Z,63.73
2022-08-09T22:30:26.015Z,64.10
2022-08-09T22:31:50.653Z,64.21
2022-08-09T22:34:25.660Z,64.46
2022-08-09T22:36:52.071Z,64.23
2022-08-09T22:38:14.700Z,64.23
2022-08-09T22:40:39.957Z,64.21
2022-08-09T22:42:00.696Z,64.25
2022-08-09T22:44:06.599Z,64.33
2022-08-09T22:49:36.792Z,64.60
2022-08-09T22:50:58.788Z,64.64
2022-08-09T22:52:21.333Z,64.66
2022-08-09T22:54:52.591Z,64.88
2022-08-09T22:56:56.456Z,64.88
2022-08-09T22:58:05.950Z,64.80
2022-08-09T23:00:17.724Z,64.86
2022-08-09T23:01:33.924Z,64.86
2022-08-09T23:02:37.533Z,64.88
2022-08-09T23:05:00.166Z,65.16
2022-08-09T23:06:05.604Z,65.28
2022-08-09T23:08:30.026Z,65.42
2022-08-09T23:10:05.013Z,65.70
2022-08-09T23:11:07.634Z,65.66
2022-08-09T23:12:10.377Z,65.67
2022-08-09T23:13:53.313Z,65.66
2022-08-09T23:15:23.012Z,65.91
2022-08-09T23:16:44.137Z,65.98
2022-08-09T23:18:18.943Z,66.00
2022-08-09T23:19:21.549Z,66.02
2022-08-09T23:20:59.092Z,65.87
2022-08-09T23:22:47.476Z,65.92
2022-08-09T23:24:12.458Z,65.91
2022-08-09T23:25:15.110Z,65.95
2022-08-09T23:26:50.424Z,65.99
2022-08-09T23:28:21.476Z,66.10
2022-08-09T23:29:24.204Z,65.99
2022-08-09T23:31:05.594Z,66.16
2022-08-09T23:32:10.650Z,66.25
2022-08-09T23:33:13.327Z,66.20
2022-08-09T23:34:49.724Z,66.18
2022-08-09T23:36:12.835Z,66.28
2022-08-09T23:37:15.466Z,66.19
2022-08-09T23:38:55.236Z,66.20
2022-08-09T23:39:58.174Z,66.26
2022-08-09T23:41:02.333Z,66.33
2022-08-09T23:42:52.782Z,66.48
2022-08-09T23:44:00.734Z,66.64
2022-08-09T23:45:03.368Z,66.66
2022-08-09T23:47:03.567Z,66.94
2022-08-09T23:48:09.975Z,66.94
2022-08-09T23:49:12.682Z,66.99
2022-08-09T23:50:53.794Z,67.18